sensor_id;sensor_type;location;lat;lon;timestamp;pressure;altitude;pressure_sealevel;temperature;humidity
13476;BME280;6810;63.824;20.288;2023-12-04T00:01:17;101784.66;;;-4.94;74.93
13476;BME280;6810;63.824;20.288;2023-12-04T00:03:45;101787.22;;;-4.96;75.89
13476;BME280;6810;63.824;20.288;2023-12-04T00:06:12;101787.13;;;-5.00;75.04
13476;BME280;6810;63.824;20.288;2023-12-04T00:08:40;101789.78;;;-4.97;75.86
13476;BME280;6810;63.824;20.288;2023-12-04T00:11:07;101792.34;;;-4.99;74.99
13476;BME280;6810;63.824;20.288;2023-12-04T00:13:34;101784.47;;;-5.03;75.16
13476;BME280;6810;63.824;20.288;2023-12-04T00:16:02;101775.81;;;-5.02;75.29
13476;BME280;6810;63.824;20.288;2023-12-04T00:18:29;101767.88;;;-5.08;75.33
13476;BME280;6810;63.824;20.288;2023-12-04T00:20:57;101759.94;;;-5.16;75.40
13476;BME280;6810;63.824;20.288;2023-12-04T00:23:24;101768.75;;;-5.09;75.31
13476;BME280;6810;63.824;20.288;2023-12-04T00:25:51;101767.81;;;-5.11;74.96
13476;BME280;6810;63.824;20.288;2023-12-04T00:28:18;101767.00;;;-5.10;74.83
13476;BME280;6810;63.824;20.288;2023-12-04T00:30:46;101768.63;;;-5.14;74.52
13476;BME280;6810;63.824;20.288;2023-12-04T00:33:13;101767.78;;;-5.13;75.47
13476;BME280;6810;63.824;20.288;2023-12-04T00:35:41;101763.41;;;-5.15;74.77
13476;BME280;6810;63.824;20.288;2023-12-04T00:38:28;101758.06;;;-5.23;75.09
13476;BME280;6810;63.824;20.288;2023-12-04T00:41:15;101758.19;;;-5.17;74.94
13476;BME280;6810;63.824;20.288;2023-12-04T00:44:05;101763.31;;;-5.20;74.43
13476;BME280;6810;63.824;20.288;2023-12-04T00:46:53;101761.53;;;-5.21;74.85
13476;BME280;6810;63.824;20.288;2023-12-04T00:49:40;101752.84;;;-5.23;75.03
13476;BME280;6810;63.824;20.288;2023-12-04T00:52:27;101763.22;;;-5.24;74.32
13476;BME280;6810;63.824;20.288;2023-12-04T00:55:14;101759.72;;;-5.25;74.74
13476;BME280;6810;63.824;20.288;2023-12-04T00:58:02;101752.75;;;-5.27;75.33
13476;BME280;6810;63.824;20.288;2023-12-04T01:00:49;101757.06;;;-5.28;74.99
13476;BME280;6810;63.824;20.288;2023-12-04T01:03:37;101748.34;;;-5.30;75.32
13476;BME280;6810;63.824;20.288;2023-12-04T01:06:25;101741.34;;;-5.34;74.69
13476;BME280;6810;63.824;20.288;2023-12-04T01:09:12;101743.97;;;-5.32;74.93
13476;BME280;6810;63.824;20.288;2023-12-04T01:11:59;101747.44;;;-5.33;74.79
13476;BME280;6810;63.824;20.288;2023-12-04T01:14:46;101701.81;;;-5.61;75.07
13476;BME280;6810;63.824;20.288;2023-12-04T01:17:33;101751.72;;;-5.36;74.64
13476;BME280;6810;63.824;20.288;2023-12-04T01:20:20;101749.94;;;-5.38;74.33
13476;BME280;6810;63.824;20.288;2023-12-04T01:23:07;101746.44;;;-5.39;74.34
13476;BME280;6810;63.824;20.288;2023-12-04T01:25:55;101746.41;;;-5.40;75.25
13476;BME280;6810;63.824;20.288;2023-12-04T01:28:42;101741.22;;;-5.40;74.63
13476;BME280;6810;63.824;20.288;2023-12-04T01:31:29;101742.03;;;-5.43;74.36
13476;BME280;6810;63.824;20.288;2023-12-04T01:34:16;101742.91;;;-5.42;74.58
13476;BME280;6810;63.824;20.288;2023-12-04T01:37:03;101741.16;;;-5.43;75.06
13476;BME280;6810;63.824;20.288;2023-12-04T01:39:51;101739.41;;;-5.44;74.38
13476;BME280;6810;63.824;20.288;2023-12-04T01:42:38;101735.91;;;-5.45;74.80
13476;BME280;6810;63.824;20.288;2023-12-04T01:45:25;101737.63;;;-5.45;74.97
13476;BME280;6810;63.824;20.288;2023-12-04T01:48:13;101738.50;;;-5.46;75.23
13476;BME280;6810;63.824;20.288;2023-12-04T01:51:05;101729.72;;;-5.51;75.19
13476;BME280;6810;63.824;20.288;2023-12-04T01:53:53;101728.06;;;-5.48;74.55
13476;BME280;6810;63.824;20.288;2023-12-04T01:56:41;101734.09;;;-5.49;75.28
13476;BME280;6810;63.824;20.288;2023-12-04T01:59:29;101696.50;;;-5.66;74.61
13476;BME280;6810;63.824;20.288;2023-12-04T02:02:16;101718.50;;;-5.49;74.52
13476;BME280;6810;63.824;20.288;2023-12-04T02:05:05;101730.63;;;-5.49;75.21
13476;BME280;6810;63.824;20.288;2023-12-04T02:07:54;101723.66;;;-5.50;75.04
13476;BME280;6810;63.824;20.288;2023-12-04T02:10:41;101723.66;;;-5.50;75.07
13476;BME280;6810;63.824;20.288;2023-12-04T02:13:30;101705.34;;;-5.56;75.36
13476;BME280;6810;63.824;20.288;2023-12-04T02:16:18;101717.59;;;-5.52;74.78
13476;BME280;6810;63.824;20.288;2023-12-04T02:19:11;101721.06;;;-5.50;74.88
13476;BME280;6810;63.824;20.288;2023-12-04T02:21:58;101713.22;;;-5.53;74.57
13476;BME280;6810;63.824;20.288;2023-12-04T02:24:46;101717.63;;;-5.51;74.83
13476;BME280;6810;63.824;20.288;2023-12-04T02:27:53;101714.09;;;-5.53;74.37
13476;BME280;6810;63.824;20.288;2023-12-04T02:30:43;101708.91;;;-5.53;74.38
13476;BME280;6810;63.824;20.288;2023-12-04T02:33:31;101708.03;;;-5.52;74.47
13476;BME280;6810;63.824;20.288;2023-12-04T02:36:20;101705.41;;;-5.53;75.32
13476;BME280;6810;63.824;20.288;2023-12-04T02:39:10;101710.66;;;-5.52;75.25
13476;BME280;6810;63.824;20.288;2023-12-04T02:41:58;101706.28;;;-5.54;74.96
13476;BME280;6810;63.824;20.288;2023-12-04T02:44:45;101702.81;;;-5.53;75.32
13476;BME280;6810;63.824;20.288;2023-12-04T02:47:32;101706.28;;;-5.54;74.73
13476;BME280;6810;63.824;20.288;2023-12-04T02:50:19;101692.31;;;-5.59;74.67
13476;BME280;6810;63.824;20.288;2023-12-04T02:53:06;101693.28;;;-5.54;74.38
13476;BME280;6810;63.824;20.288;2023-12-04T02:55:53;101683.66;;;-5.60;74.53
13476;BME280;6810;63.824;20.288;2023-12-04T02:58:41;101692.38;;;-5.56;75.17
13476;BME280;6810;63.824;20.288;2023-12-04T03:01:28;101671.41;;;-5.65;74.38
13476;BME280;6810;63.824;20.288;2023-12-04T03:04:15;101693.28;;;-5.54;74.45
13476;BME280;6810;63.824;20.288;2023-12-04T03:07:03;101695.03;;;-5.53;75.32
13476;BME280;6810;63.824;20.288;2023-12-04T03:09:50;101688.94;;;-5.55;74.48
13476;BME280;6810;63.824;20.288;2023-12-04T03:12:37;101682.00;;;-5.56;74.39
13476;BME280;6810;63.824;20.288;2023-12-04T03:15:25;101677.72;;;-5.54;74.79
13476;BME280;6810;63.824;20.288;2023-12-04T03:18:12;101681.16;;;-5.55;75.15
13476;BME280;6810;63.824;20.288;2023-12-04T03:20:59;101673.31;;;-5.58;74.50
13476;BME280;6810;63.824;20.288;2023-12-04T03:23:46;101676.81;;;-5.55;75.36
13476;BME280;6810;63.824;20.288;2023-12-04T03:26:35;101674.19;;;-5.56;75.16
13476;BME280;6810;63.824;20.288;2023-12-04T03:29:22;101671.59;;;-5.56;74.44
13476;BME280;6810;63.824;20.288;2023-12-04T03:32:09;101671.59;;;-5.56;74.63
13476;BME280;6810;63.824;20.288;2023-12-04T03:34:57;101671.59;;;-5.56;75.33
13476;BME280;6810;63.824;20.288;2023-12-04T03:37:44;101670.75;;;-5.57;75.03
13476;BME280;6810;63.824;20.288;2023-12-04T03:40:31;101646.19;;;-5.71;74.73
13476;BME280;6810;63.824;20.288;2023-12-04T03:43:18;101637.44;;;-5.76;74.68
13476;BME280;6810;63.824;20.288;2023-12-04T03:46:06;101668.16;;;-5.57;75.13
13476;BME280;6810;63.824;20.288;2023-12-04T03:48:54;101678.56;;;-5.55;75.39
13476;BME280;6810;63.824;20.288;2023-12-04T03:51:41;101682.91;;;-5.54;75.23
13476;BME280;6810;63.824;20.288;2023-12-04T03:54:28;101671.63;;;-5.55;75.34
13476;BME280;6810;63.824;20.288;2023-12-04T03:57:15;101670.78;;;-5.55;74.79
13476;BME280;6810;63.824;20.288;2023-12-04T04:00:03;101673.41;;;-5.54;75.33
13476;BME280;6810;63.824;20.288;2023-12-04T04:02:50;101670.78;;;-5.55;74.82
13476;BME280;6810;63.824;20.288;2023-12-04T04:05:37;101673.41;;;-5.54;74.98
13476;BME280;6810;63.824;20.288;2023-12-04T04:08:24;101671.66;;;-5.53;74.71
13476;BME280;6810;63.824;20.288;2023-12-04T04:11:12;101676.03;;;-5.52;75.12
13476;BME280;6810;63.824;20.288;2023-12-04T04:13:59;101675.16;;;-5.53;75.38
13476;BME280;6810;63.824;20.288;2023-12-04T04:16:46;101680.34;;;-5.53;74.92
13476;BME280;6810;63.824;20.288;2023-12-04T04:19:33;101680.34;;;-5.53;75.25
13476;BME280;6810;63.824;20.288;2023-12-04T04:22:21;101680.34;;;-5.53;74.49
13476;BME280;6810;63.824;20.288;2023-12-04T04:25:09;101675.16;;;-5.53;75.26
13476;BME280;6810;63.824;20.288;2023-12-04T04:27:56;101682.94;;;-5.53;74.83
13476;BME280;6810;63.824;20.288;2023-12-04T04:30:43;101675.19;;;-5.51;75.48
13476;BME280;6810;63.824;20.288;2023-12-04T04:33:30;101676.03;;;-5.52;75.47
13476;BME280;6810;63.824;20.288;2023-12-04T04:36:17;101671.66;;;-5.53;75.28
13476;BME280;6810;63.824;20.288;2023-12-04T04:39:04;101673.44;;;-5.52;74.73
13476;BME280;6810;63.824;20.288;2023-12-04T04:41:52;101676.91;;;-5.50;75.17
13476;BME280;6810;63.824;20.288;2023-12-04T04:44:39;101665.69;;;-5.51;75.26
13476;BME280;6810;63.824;20.288;2023-12-04T04:47:26;101669.13;;;-5.50;74.90
13476;BME280;6810;63.824;20.288;2023-12-04T04:50:13;101670.00;;;-5.51;75.09
13476;BME280;6810;63.824;20.288;2023-12-04T04:53:00;101657.91;;;-5.51;74.78
13476;BME280;6810;63.824;20.288;2023-12-04T04:55:47;101657.88;;;-5.52;74.59
13476;BME280;6810;63.824;20.288;2023-12-04T04:58:34;101657.00;;;-5.51;74.66
13476;BME280;6810;63.824;20.288;2023-12-04T05:01:21;101640.34;;;-5.61;75.22
13476;BME280;6810;63.824;20.288;2023-12-04T05:04:09;101652.69;;;-5.51;75.38
13476;BME280;6810;63.824;20.288;2023-12-04T05:06:56;101654.44;;;-5.50;75.13
13476;BME280;6810;63.824;20.288;2023-12-04T05:09:43;101650.09;;;-5.51;74.89
13476;BME280;6810;63.824;20.288;2023-12-04T05:12:34;101650.09;;;-5.51;74.83
13476;BME280;6810;63.824;20.288;2023-12-04T05:15:21;101612.44;;;-5.72;74.84
13476;BME280;6810;63.824;20.288;2023-12-04T05:18:08;101644.91;;;-5.51;75.27
13476;BME280;6810;63.824;20.288;2023-12-04T05:20:56;101643.13;;;-5.52;74.65
13476;BME280;6810;63.824;20.288;2023-12-04T05:23:43;101624.00;;;-5.57;74.65
13476;BME280;6810;63.824;20.288;2023-12-04T05:26:30;101642.31;;;-5.51;74.88
13476;BME280;6810;63.824;20.288;2023-12-04T05:29:17;101646.59;;;-5.53;75.02
13476;BME280;6810;63.824;20.288;2023-12-04T05:32:05;101637.91;;;-5.53;74.89
13476;BME280;6810;63.824;20.288;2023-12-04T05:34:52;101638.81;;;-5.53;75.42
13476;BME280;6810;63.824;20.288;2023-12-04T05:37:39;101628.44;;;-5.51;74.78
13476;BME280;6810;63.824;20.288;2023-12-04T05:40:26;101632.72;;;-5.53;75.38
13476;BME280;6810;63.824;20.288;2023-12-04T05:43:13;101633.59;;;-5.53;74.76
13476;BME280;6810;63.824;20.288;2023-12-04T05:46:00;101624.84;;;-5.58;74.53
13476;BME280;6810;63.824;20.288;2023-12-04T05:48:47;101635.31;;;-5.53;74.71
13476;BME280;6810;63.824;20.288;2023-12-04T05:51:35;101623.19;;;-5.54;74.79
13476;BME280;6810;63.824;20.288;2023-12-04T05:54:22;101624.91;;;-5.55;74.74
13476;BME280;6810;63.824;20.288;2023-12-04T05:57:09;101630.97;;;-5.54;75.31
13476;BME280;6810;63.824;20.288;2023-12-04T05:59:56;101626.66;;;-5.55;74.50
13476;BME280;6810;63.824;20.288;2023-12-04T06:02:44;101635.25;;;-5.56;74.80
13476;BME280;6810;63.824;20.288;2023-12-04T06:05:31;101624.88;;;-5.56;74.89
13476;BME280;6810;63.824;20.288;2023-12-04T06:08:23;101621.34;;;-5.60;75.06
13476;BME280;6810;63.824;20.288;2023-12-04T06:11:10;101623.13;;;-5.57;75.21
13476;BME280;6810;63.824;20.288;2023-12-04T06:13:57;101618.72;;;-5.61;74.97
13476;BME280;6810;63.824;20.288;2023-12-04T06:16:44;101627.47;;;-5.56;75.15
13476;BME280;6810;63.824;20.288;2023-12-04T06:19:31;101628.28;;;-5.59;75.21
13476;BME280;6810;63.824;20.288;2023-12-04T06:22:18;101621.34;;;-5.60;75.07
13476;BME280;6810;63.824;20.288;2023-12-04T06:25:06;101626.53;;;-5.60;74.84
13476;BME280;6810;63.824;20.288;2023-12-04T06:27:53;101622.22;;;-5.59;75.14
13476;BME280;6810;63.824;20.288;2023-12-04T06:30:41;101611.81;;;-5.59;75.32
13476;BME280;6810;63.824;20.288;2023-12-04T06:33:34;101620.50;;;-5.59;75.21
13476;BME280;6810;63.824;20.288;2023-12-04T06:36:23;101621.38;;;-5.58;75.06
13476;BME280;6810;63.824;20.288;2023-12-04T06:39:12;101619.63;;;-5.59;75.39
13476;BME280;6810;63.824;20.288;2023-12-04T06:42:00;101615.28;;;-5.60;74.76
13476;BME280;6810;63.824;20.288;2023-12-04T06:44:47;101616.94;;;-5.62;75.52
13476;BME280;6810;63.824;20.288;2023-12-04T06:47:34;101623.94;;;-5.60;74.81
13476;BME280;6810;63.824;20.288;2023-12-04T06:50:21;101628.25;;;-5.60;75.08
13476;BME280;6810;63.824;20.288;2023-12-04T06:53:09;101629.97;;;-5.61;75.37
13476;BME280;6810;63.824;20.288;2023-12-04T06:55:56;101628.19;;;-5.63;75.06
13476;BME280;6810;63.824;20.288;2023-12-04T06:58:46;101630.84;;;-5.60;74.54
13476;BME280;6810;63.824;20.288;2023-12-04T07:01:33;101632.56;;;-5.61;75.16
13476;BME280;6810;63.824;20.288;2023-12-04T07:04:20;101634.31;;;-5.61;74.49
13476;BME280;6810;63.824;20.288;2023-12-04T07:07:08;101628.22;;;-5.62;74.80
13476;BME280;6810;63.824;20.288;2023-12-04T07:09:55;101639.50;;;-5.61;75.27
13476;BME280;6810;63.824;20.288;2023-12-04T07:12:43;101623.81;;;-5.66;74.54
13476;BME280;6810;63.824;20.288;2023-12-04T07:15:30;101636.88;;;-5.63;74.76
13476;BME280;6810;63.824;20.288;2023-12-04T07:18:18;101635.13;;;-5.62;74.76
13476;BME280;6810;63.824;20.288;2023-12-04T07:21:05;101629.84;;;-5.67;74.36
13476;BME280;6810;63.824;20.288;2023-12-04T07:23:52;101635.13;;;-5.62;74.46
13476;BME280;6810;63.824;20.288;2023-12-04T07:26:39;101636.88;;;-5.63;75.39
13476;BME280;6810;63.824;20.288;2023-12-04T07:29:26;101640.28;;;-5.64;74.73
13476;BME280;6810;63.824;20.288;2023-12-04T07:32:13;101626.34;;;-5.69;75.11
13476;BME280;6810;63.824;20.288;2023-12-04T07:35:00;101639.47;;;-5.63;75.10
13476;BME280;6810;63.824;20.288;2023-12-04T07:37:48;101637.72;;;-5.62;75.01
13476;BME280;6810;63.824;20.288;2023-12-04T07:40:34;101643.78;;;-5.63;75.03
13476;BME280;6810;63.824;20.288;2023-12-04T07:43:22;101637.66;;;-5.65;75.11
13476;BME280;6810;63.824;20.288;2023-12-04T07:46:09;101635.97;;;-5.63;74.49
13476;BME280;6810;63.824;20.288;2023-12-04T07:48:56;101641.16;;;-5.63;74.66
13476;BME280;6810;63.824;20.288;2023-12-04T07:51:44;101631.69;;;-5.63;75.00
13476;BME280;6810;63.824;20.288;2023-12-04T07:54:31;101636.88;;;-5.63;74.98
13476;BME280;6810;63.824;20.288;2023-12-04T07:57:18;101639.47;;;-5.63;74.45
13476;BME280;6810;63.824;20.288;2023-12-04T08:00:06;101631.56;;;-5.67;74.82
13476;BME280;6810;63.824;20.288;2023-12-04T08:02:53;101638.56;;;-5.63;75.10
13476;BME280;6810;63.824;20.288;2023-12-04T08:05:40;101629.06;;;-5.63;74.89
13476;BME280;6810;63.824;20.288;2023-12-04T08:08:28;101629.88;;;-5.65;74.69
13476;BME280;6810;63.824;20.288;2023-12-04T08:11:15;101634.28;;;-5.63;74.46
13476;BME280;6810;63.824;20.288;2023-12-04T08:14:02;101631.59;;;-5.66;75.46
13476;BME280;6810;63.824;20.288;2023-12-04T08:16:50;101637.75;;;-5.61;74.92
13476;BME280;6810;63.824;20.288;2023-12-04T08:19:37;101623.91;;;-5.61;74.80
13476;BME280;6810;63.824;20.288;2023-12-04T08:22:24;101630.78;;;-5.63;74.77
13476;BME280;6810;63.824;20.288;2023-12-04T08:25:11;101625.63;;;-5.62;74.66
13476;BME280;6810;63.824;20.288;2023-12-04T08:27:58;101636.00;;;-5.62;74.63
13476;BME280;6810;63.824;20.288;2023-12-04T08:30:45;101631.72;;;-5.61;74.37
13476;BME280;6810;63.824;20.288;2023-12-04T08:33:33;101616.81;;;-5.68;74.70
13476;BME280;6810;63.824;20.288;2023-12-04T08:36:19;101630.84;;;-5.60;74.91
13476;BME280;6810;63.824;20.288;2023-12-04T08:39:13;101626.53;;;-5.60;74.54
13476;BME280;6810;63.824;20.288;2023-12-04T08:42:00;101623.88;;;-5.63;75.39
13476;BME280;6810;63.824;20.288;2023-12-04T08:44:49;101624.81;;;-5.59;74.89
13476;BME280;6810;63.824;20.288;2023-12-04T08:47:36;101611.69;;;-5.65;74.87
13476;BME280;6810;63.824;20.288;2023-12-04T08:50:24;101630.00;;;-5.59;74.92
13476;BME280;6810;63.824;20.288;2023-12-04T08:53:11;101622.09;;;-5.65;74.62
13476;BME280;6810;63.824;20.288;2023-12-04T08:55:58;101630.88;;;-5.59;74.37
13476;BME280;6810;63.824;20.288;2023-12-04T08:58:54;101623.97;;;-5.58;74.49
13476;BME280;6810;63.824;20.288;2023-12-04T09:01:42;101623.09;;;-5.59;75.01
13476;BME280;6810;63.824;20.288;2023-12-04T09:04:31;101616.19;;;-5.58;75.38
13476;BME280;6810;63.824;20.288;2023-12-04T09:07:18;101618.78;;;-5.58;75.38
13476;BME280;6810;63.824;20.288;2023-12-04T09:10:08;101618.78;;;-5.58;74.76
13476;BME280;6810;63.824;20.288;2023-12-04T09:13:15;101620.53;;;-5.57;75.22
13476;BME280;6810;63.824;20.288;2023-12-04T09:16:03;101597.84;;;-5.67;75.37
13476;BME280;6810;63.824;20.288;2023-12-04T09:18:50;101619.69;;;-5.56;74.74
13476;BME280;6810;63.824;20.288;2023-12-04T09:21:38;101622.28;;;-5.56;74.63
13476;BME280;6810;63.824;20.288;2023-12-04T09:24:38;101597.72;;;-5.73;75.08
13476;BME280;6810;63.824;20.288;2023-12-04T09:27:25;101618.00;;;-5.54;75.02
13476;BME280;6810;63.824;20.288;2023-12-04T09:30:12;101610.91;;;-5.63;74.81
13476;BME280;6810;63.824;20.288;2023-12-04T09:33:00;101621.47;;;-5.54;75.24
13476;BME280;6810;63.824;20.288;2023-12-04T09:35:47;101629.31;;;-5.52;75.39
13476;BME280;6810;63.824;20.288;2023-12-04T09:38:34;101627.53;;;-5.53;75.38
13476;BME280;6810;63.824;20.288;2023-12-04T09:41:21;101618.91;;;-5.52;75.14
13476;BME280;6810;63.824;20.288;2023-12-04T09:44:09;101622.38;;;-5.52;75.15
13476;BME280;6810;63.824;20.288;2023-12-04T09:46:58;101608.28;;;-5.64;75.21
13476;BME280;6810;63.824;20.288;2023-12-04T09:49:46;101627.59;;;-5.50;75.07
13476;BME280;6810;63.824;20.288;2023-12-04T09:52:34;101611.81;;;-5.59;74.80
13476;BME280;6810;63.824;20.288;2023-12-04T09:55:21;101574.16;;;-5.81;75.31
13476;BME280;6810;63.824;20.288;2023-12-04T09:58:10;101624.19;;;-5.48;74.64
13476;BME280;6810;63.824;20.288;2023-12-04T10:01:02;101638.03;;;-5.47;74.63
13476;BME280;6810;63.824;20.288;2023-12-04T10:03:50;101611.09;;;-5.54;75.23
13476;BME280;6810;63.824;20.288;2023-12-04T10:06:37;101633.75;;;-5.45;74.78
13476;BME280;6810;63.824;20.288;2023-12-04T10:09:25;101625.16;;;-5.44;75.46
13476;BME280;6810;63.824;20.288;2023-12-04T10:12:12;101629.50;;;-5.43;75.19
13476;BME280;6810;63.824;20.288;2023-12-04T10:15:10;101613.81;;;-5.48;74.66
13476;BME280;6810;63.824;20.288;2023-12-04T10:17:58;101628.66;;;-5.41;74.73
13476;BME280;6810;63.824;20.288;2023-12-04T10:20:52;101630.44;;;-5.40;74.80
13476;BME280;6810;63.824;20.288;2023-12-04T10:23:48;101617.38;;;-5.43;74.64
13476;BME280;6810;63.824;20.288;2023-12-04T10:26:35;101622.69;;;-5.38;74.88
13476;BME280;6810;63.824;20.288;2023-12-04T10:29:22;101620.09;;;-5.37;75.43
13476;BME280;6810;63.824;20.288;2023-12-04T10:32:09;101623.56;;;-5.36;75.38
13476;BME280;6810;63.824;20.288;2023-12-04T10:34:57;101627.94;;;-5.35;75.20
13476;BME280;6810;63.824;20.288;2023-12-04T10:37:44;101623.63;;;-5.33;74.72
13476;BME280;6810;63.824;20.288;2023-12-04T10:40:33;101619.28;;;-5.34;74.78
13476;BME280;6810;63.824;20.288;2023-12-04T10:43:22;101620.09;;;-5.37;75.24
13476;BME280;6810;63.824;20.288;2023-12-04T10:46:09;101625.44;;;-5.30;75.45
13476;BME280;6810;63.824;20.288;2023-12-04T10:48:56;101625.44;;;-5.29;74.88
13476;BME280;6810;63.824;20.288;2023-12-04T10:51:44;101626.34;;;-5.27;74.77
13476;BME280;6810;63.824;20.288;2023-12-04T10:54:31;101622.91;;;-5.26;74.75
13476;BME280;6810;63.824;20.288;2023-12-04T10:57:37;101619.47;;;-5.25;75.53
13476;BME280;6810;63.824;20.288;2023-12-04T11:00:24;101625.56;;;-5.23;74.60
13476;BME280;6810;63.824;20.288;2023-12-04T11:03:36;101622.13;;;-5.22;74.58
13476;BME280;6810;63.824;20.288;2023-12-04T11:06:21;101626.44;;;-5.21;75.59
13476;BME280;6810;63.824;20.288;2023-12-04T11:09:09;101627.34;;;-5.20;75.13
13476;BME280;6810;63.824;20.288;2023-12-04T11:11:59;101624.81;;;-5.17;74.96
13476;BME280;6810;63.824;20.288;2023-12-04T11:14:53;101624.84;;;-5.16;75.48
13476;BME280;6810;63.824;20.288;2023-12-04T11:17:46;101627.47;;;-5.14;75.55
13476;BME280;6810;63.824;20.288;2023-12-04T11:20:44;101624.03;;;-5.13;75.35
13476;BME280;6810;63.824;20.288;2023-12-04T11:23:34;101623.19;;;-5.12;75.08
13476;BME280;6810;63.824;20.288;2023-12-04T11:26:22;101624.06;;;-5.12;75.11
13476;BME280;6810;63.824;20.288;2023-12-04T11:29:11;101604.81;;;-5.21;74.85
13476;BME280;6810;63.824;20.288;2023-12-04T11:31:59;101615.44;;;-5.09;75.21
13476;BME280;6810;63.824;20.288;2023-12-04T11:34:55;101612.81;;;-5.11;75.68
13476;BME280;6810;63.824;20.288;2023-12-04T11:37:43;101622.44;;;-5.05;74.70
13476;BME280;6810;63.824;20.288;2023-12-04T11:40:31;101613.84;;;-5.03;75.52
13476;BME280;6810;63.824;20.288;2023-12-04T11:43:23;101612.97;;;-5.03;75.14
13476;BME280;6810;63.824;20.288;2023-12-04T11:46:11;101610.38;;;-5.02;75.19
13476;BME280;6810;63.824;20.288;2023-12-04T11:49:33;101609.53;;;-5.01;75.03
13476;BME280;6810;63.824;20.288;2023-12-04T11:52:32;101600.06;;;-4.99;75.75
13476;BME280;6810;63.824;20.288;2023-12-04T11:55:22;101598.34;;;-4.98;75.14
13476;BME280;6810;63.824;20.288;2023-12-04T11:58:10;101600.06;;;-4.97;75.91
13476;BME280;6810;63.824;20.288;2023-12-04T12:00:58;101603.56;;;-4.97;75.21
13476;BME280;6810;63.824;20.288;2023-12-04T12:03:50;101599.22;;;-4.96;76.04
13476;BME280;6810;63.824;20.288;2023-12-04T12:06:38;101606.22;;;-4.94;75.65
13476;BME280;6810;63.824;20.288;2023-12-04T12:09:25;101588.75;;;-5.01;75.53
13476;BME280;6810;63.824;20.288;2023-12-04T12:12:17;101593.25;;;-4.92;75.99
13476;BME280;6810;63.824;20.288;2023-12-04T12:15:07;101584.47;;;-4.97;75.85
13476;BME280;6810;63.824;20.288;2023-12-04T12:17:55;101597.63;;;-4.88;75.33
13476;BME280;6810;63.824;20.288;2023-12-04T12:20:42;101596.75;;;-4.89;75.52
13476;BME280;6810;63.824;20.288;2023-12-04T12:23:29;101593.31;;;-4.88;75.37
13476;BME280;6810;63.824;20.288;2023-12-04T12:26:17;101557.44;;;-5.07;74.92
13476;BME280;6810;63.824;20.288;2023-12-04T12:29:04;101598.56;;;-4.85;75.64
13476;BME280;6810;63.824;20.288;2023-12-04T12:31:51;101589.88;;;-4.87;75.89
13476;BME280;6810;63.824;20.288;2023-12-04T12:34:38;101596.84;;;-4.83;75.83
13476;BME280;6810;63.824;20.288;2023-12-04T12:37:25;101590.84;;;-4.82;75.12
13476;BME280;6810;63.824;20.288;2023-12-04T12:40:13;101598.66;;;-4.80;75.81
13476;BME280;6810;63.824;20.288;2023-12-04T12:43:05;101596.06;;;-4.80;75.97
13476;BME280;6810;63.824;20.288;2023-12-04T12:45:53;101603.88;;;-4.79;75.75
13476;BME280;6810;63.824;20.288;2023-12-04T12:48:42;101602.16;;;-4.78;75.37
13476;BME280;6810;63.824;20.288;2023-12-04T12:51:29;101590.91;;;-4.77;75.08
13476;BME280;6810;63.824;20.288;2023-12-04T12:54:16;101590.94;;;-4.76;75.30
13476;BME280;6810;63.824;20.288;2023-12-04T12:57:03;101585.75;;;-4.76;75.18
13476;BME280;6810;63.824;20.288;2023-12-04T12:59:50;101590.06;;;-4.75;75.10
13476;BME280;6810;63.824;20.288;2023-12-04T13:02:37;101586.66;;;-4.74;75.74
13476;BME280;6810;63.824;20.288;2023-12-04T13:05:25;101575.38;;;-4.73;75.42
13476;BME280;6810;63.824;20.288;2023-12-04T13:08:12;101566.72;;;-4.72;75.88
13476;BME280;6810;63.824;20.288;2023-12-04T13:11:00;101560.69;;;-4.72;75.63
13476;BME280;6810;63.824;20.288;2023-12-04T13:13:47;101572.81;;;-4.71;75.42
13476;BME280;6810;63.824;20.288;2023-12-04T13:16:34;101578.03;;;-4.70;75.98
13476;BME280;6810;63.824;20.288;2023-12-04T13:19:24;101574.56;;;-4.70;76.25
13476;BME280;6810;63.824;20.288;2023-12-04T13:22:11;101565.00;;;-4.73;75.96
13476;BME280;6810;63.824;20.288;2023-12-04T13:24:59;101567.63;;;-4.70;76.27
13476;BME280;6810;63.824;20.288;2023-12-04T13:27:46;101570.28;;;-4.67;75.57
13476;BME280;6810;63.824;20.288;2023-12-04T13:30:38;101569.41;;;-4.67;76.22
13476;BME280;6810;63.824;20.288;2023-12-04T13:33:25;101555.44;;;-4.75;75.59
13476;BME280;6810;63.824;20.288;2023-12-04T13:36:12;101562.50;;;-4.67;75.65
13476;BME280;6810;63.824;20.288;2023-12-04T13:38:59;101565.09;;;-4.67;75.33
13476;BME280;6810;63.824;20.288;2023-12-04T13:41:46;101569.44;;;-4.64;75.22
13476;BME280;6810;63.824;20.288;2023-12-04T13:44:32;101563.38;;;-4.66;75.03
13476;BME280;6810;63.824;20.288;2023-12-04T13:47:19;101523.94;;;-4.90;75.10
13476;BME280;6810;63.824;20.288;2023-12-04T13:50:07;101569.47;;;-4.63;75.96
13476;BME280;6810;63.824;20.288;2023-12-04T13:52:54;101573.81;;;-4.63;75.51
13476;BME280;6810;63.824;20.288;2023-12-04T13:55:41;101554.53;;;-4.76;75.18
13476;BME280;6810;63.824;20.288;2023-12-04T13:58:34;101568.59;;;-4.65;75.60
13476;BME280;6810;63.824;20.288;2023-12-04T14:01:26;101545.84;;;-4.78;76.15
13476;BME280;6810;63.824;20.288;2023-12-04T14:04:16;101569.47;;;-4.63;75.64
13476;BME280;6810;63.824;20.288;2023-12-04T14:07:04;101565.09;;;-4.67;75.04
13476;BME280;6810;63.824;20.288;2023-12-04T14:09:51;101577.22;;;-4.66;75.80
13476;BME280;6810;63.824;20.288;2023-12-04T14:12:39;101572.06;;;-4.64;75.24
13476;BME280;6810;63.824;20.288;2023-12-04T14:15:27;101577.28;;;-4.63;75.61
13476;BME280;6810;63.824;20.288;2023-12-04T14:18:14;101572.91;;;-4.65;75.05
13476;BME280;6810;63.824;20.288;2023-12-04T14:21:01;101572.06;;;-4.63;76.40
13476;BME280;6810;63.824;20.288;2023-12-04T14:23:49;101561.59;;;-4.67;75.67
13476;BME280;6810;63.824;20.288;2023-12-04T14:26:36;101520.53;;;-4.89;76.12
13476;BME280;6810;63.824;20.288;2023-12-04T14:29:23;101570.28;;;-4.67;75.24
13476;BME280;6810;63.824;20.288;2023-12-04T14:32:10;101578.13;;;-4.64;75.05
13476;BME280;6810;63.824;20.288;2023-12-04T14:35:09;101579.00;;;-4.65;76.15